Tiempo atmosférico en la estación meteorológica de Miguelañez, Segovia (870 m.)



Fecha
DESCASC
Temp. máxima en grados centígrados (hora)
DESCASC
Temp. mínima en grados centígrados (hora)
DESCASC
Temp. media en grados centígrados
DESCASC
Racha de viento máxima en m/sg (hora)
DESCASC
Velocidad máxima media en intervalos de 10 minutos(hora)
DESCASC
Precipitaciones diarias en mm
DESCASC
Precipitaciones de 00:00 a 06:00 en mm
DESCASC
Precipitaciones de 06:00 a 12:00 en mm
DESCASC
Precipitaciones de 12:00 a 18:00 en mm
DESCASC
Precipitaciones de 18:00 a 24:00 en mm
DESCASC
05-04-2020 18.2 (16:00) 7 (07:50) 12.6 15.56 (13:50) 11.11 (13:50) 0.4 0 0 0 0.4
04-04-2020 18 (15:10) 1.5 (06:40) 9.8 13.61 (18:40) 9.72 (18:20) 0 0 0 0 0
03-04-2020 15 (18:30) -0.7 (07:40) 7.2 6.39 (00:10) 5 (01:10) 0 0 0 0 0
02-04-2020 11.6 (15:50) 1.4 (00:00) 6.5 11.67 (18:10) 8.06 (18:10) 0.4 0 0 0.4 0
01-04-2020 12.4 (19:30) 3.6 (00:00) 8 10.56 (12:50) 7.5 (02:40) 0 0 0 0 0
31-03-2020 10.5 (18:20) -1.4 (-00:0) 4.6 10 (19:10) 7.22 (19:00) 7.2 0 0.6 1.8 4.8
30-03-2020 6.4 (00:00) 0.9 (00:00) 3.7 12.22 (08:00) 7.22 (00:40) 0 0 0 0 0
29-03-2020 16.4 (16:20) 1.3 (00:00) 8.8 12.22 (23:59) 7.5 (23:30) 0 0 0 0 0
28-03-2020 16.1 (17:20) -1.8 (-00:0) 7.2 6.39 (23:59) 5.28 (23:59) 0 0 0 0 0
27-03-2020 11.6 (17:30) -3 (-00:0) 4.3 10.83 (15:00) 6.67 (03:20) 0 0 0 0 0
26-03-2020 11.1 (15:10) -0.1 (00:00) 5.5 9.44 (14:20) 5.28 (19:00) 0 0 0 0 0
25-03-2020 15.6 (17:20) 2.1 (00:00) 8.9 8.89 (17:40) 5.83 (17:40) 0 0 0 0 0
24-03-2020 15.3 (16:10) 4.5 (00:00) 9.9 10.56 (14:10) 7.22 (07:10) 0 0 0 0 0
23-03-2020 14.3 (17:00) 2.8 (00:00) 8.6 12.78 (15:00) 7.78 (18:00) 0 0 0 0 0
22-03-2020 12.2 (14:10) 4.9 (23:59) 8.5 4.44 (16:00) 3.33 (23:00) 3.4 0.2 0.6 2.6 0
21-03-2020 12.6 (13:10) 3.8 (00:00) 8.2 9.44 (16:00) 6.94 (16:00) 1.8 0 0 0.8 1
20-03-2020 14.7 (14:00) 5.8 (00:00) 10.3 12.78 (15:00) 8.89 (15:50) 0 0 0 0 0
19-03-2020 14.4 (16:40) 8 (00:00) 11.2 8.61 (23:00) 6.39 (22:30) 0 0 0 0 0
18-03-2020 17.2 (15:40) 5.8 (00:00) 11.5 5.28 (02:30) 4.17 (23:59) 0 0 0 0 0
17-03-2020 15.6 (16:30) 4.1 (00:00) 9.9 14.72 (14:20) 10.83 (14:10) 3.6 3.6 0 0 0
16-03-2020 4.3 (17:50) 0.5 (00:00) 2.4 15.28 (13:50) 10.28 (13:50) 15.6 0.2 5.2 6.2 4
15-03-2020 19.5 (15:10) 2.4 (00:00) 11 19.72 (16:50) 15 (16:50) 0 0 0 0 0
14-03-2020 18.8 (16:50) -0.5 (-00:0) 9.1 4.72 (23:00) 3.89 (22:40) 0 0 0 0 0
13-03-2020 17.5 (16:50) 5.1 (23:50) 11.3 8.33 (19:00) 5.83 (18:50) 0 0 0 0 0
12-03-2020 24.4 (15:30) 9.7 (00:00) 17 8.89 (16:00) 6.11 (09:00) 0 0 0 0 0
11-03-2020 23.7 (15:50) 6.4 (00:00) 15.1 7.22 (16:40) 5.56 (01:00) 0 0 0 0 0
10-03-2020 21.4 (17:10) 3.4 (00:00) 12.4 7.5 (16:30) 5.83 (01:20) 0 0 0 0 0
09-03-2020 13.3 (16:30) 2.7 (00:00) 8 10.83 (00:20) 7.22 (01:00) 0 0 0 0 0

Gráficas

Temp. máximas Temp. mínimas Temp. medias Precipitaciones Rachas de viento máximas Velocidades máximas media en intervalos de 10 minutos

Datos horarios

Fecha y hora oficial Temperatura (ºC) Velocidad del viento (km/h) Dirección del viento Racha (km/h) Dirección de racha Precipitación (mm) Presión (hPa) Tendencia (hPa) Humedad (%)
2020-04-07 23:00:00 11.3 6 Este 9 Norte 1.8 -- -- 92
2020-04-07 22:00:00 11.7 9 Norte 13 Nordeste 1 -- -- 91
2020-04-07 21:00:00 12.3 11 Nordeste 25 Oeste 0 -- -- 86
2020-04-07 20:00:00 14.4 21 Oeste 38 Oeste 2.4 -- -- 74
2020-04-07 19:00:00 17.2 16 Sudeste 27 Sudeste 0 -- -- 65
2020-04-07 18:00:00 17.3 19 Sudeste 27 Sudeste 0 -- -- 61
2020-04-07 17:00:00 16.8 5 Norte 9 Norte 0 -- -- 71
2020-04-07 16:00:00 15 5 Este 33 Sudoeste 2.6 -- -- 80
2020-04-07 15:00:00 18.5 20 Sur 30 Sur 0 -- -- 54
2020-04-07 14:00:00 18.1 17 Sur 30 Sudeste 0 -- -- 55
2020-04-07 13:00:00 16.7 14 Sur 23 Sur 0 -- -- 58
2020-04-07 12:00:00 15.7 9 Sur 15 Sudoeste 0 -- -- 65
2020-04-07 11:00:00 14.4 6 Sur 20 Sur 0 -- -- 70
2020-04-07 10:00:00 12.7 16 Sur 22 Sudeste 0 -- -- 77
2020-04-07 09:00:00 9.5 11 Sudeste 19 Sur 0 -- -- 89
2020-04-07 08:00:00 8.6 7 Sudeste 14 Sur 0 -- -- 91
2020-04-07 07:00:00 8.3 5 Sudeste 9 Sudeste 0 -- -- 93
2020-04-07 06:00:00 8.6 3 Sudeste 6 Este 0 -- -- 94
2020-04-07 05:00:00 9.1 6 Sudeste 9 Sudeste 0 -- -- 94
2020-04-07 04:00:00 9.8 4 Sudeste 7 Sudeste 0 -- -- 94
2020-04-07 03:00:00 9.5 3 Este 10 Este 0 -- -- 92
2020-04-07 02:00:00 10.2 5 Nordeste 9 Nordeste 0 -- -- 92
2020-04-07 01:00:00 10.4 3 Norte 6 Noroeste 0 -- -- 92
2020-04-07 00:00:00 10.7 4 Nordeste 5 Nordeste 0 -- -- 91
2020-04-06 23:00:00 11 0 Calma 9 Este 0 -- -- 89
2020-04-06 22:00:00 11.1 7 Este 10 Este 0 -- -- 88
2020-04-06 21:00:00 11.3 4 Norte 8 Nordeste 0 -- -- 88
2020-04-06 20:00:00 11.9 2 Oeste 12 Sudoeste 0.2 -- -- 80
2020-04-06 19:00:00 12.2 9 Oeste 25 Oeste 0 -- -- 78
2020-04-06 18:00:00 13.4 15 Oeste 21 Oeste 0 -- -- 69
2020-04-06 17:00:00 13.2 11 Oeste 24 Oeste 0 -- -- 74
2020-04-06 16:00:00 12.7 23 Oeste 42 Oeste 0.4 -- -- 80
2020-04-06 15:00:00 14.8 25 Oeste 32 Oeste 0 -- -- 68
2020-04-06 14:00:00 15.7 13 Sudoeste 28 Oeste 0 -- -- 62
2020-04-06 13:00:00 14.6 18 Oeste 27 Oeste 0 -- -- 69
2020-04-06 12:00:00 13.1 15 Oeste 27 Oeste 0 -- -- 76
2020-04-06 11:00:00 11.8 17 Oeste 27 Sudoeste 0 -- -- 83
2020-04-06 10:00:00 11.5 13 Oeste 17 Oeste 0 -- -- 83
2020-04-06 09:00:00 11.2 10 Sur 19 Sur 0 -- -- 84
2020-04-06 08:00:00 10.4 15 Sur 24 Sur 0 -- -- 89
2020-04-06 07:00:00 11 21 Sur 29 Sur 0 -- -- 88
2020-04-06 06:00:00 10.5 21 Sur 32 Sur 0 -- -- 88
2020-04-06 05:00:00 11.1 23 Sudeste 33 Sudeste 0 -- -- 88
2020-04-06 04:00:00 11.6 26 Sudeste 38 Sur 0 -- -- 85
2020-04-06 03:00:00 11.3 19 Sur 26 Sudeste 0 -- -- 86
2020-04-06 02:00:00 11.9 20 Sudeste 28 Sudeste 0 -- -- 85
2020-04-06 01:00:00 12 7 Sur 14 Sur 0 -- -- 84
2020-04-06 00:00:00 12.5 11 Sur 22 Sur 0.4 -- -- 80
2020-04-05 23:00:00 13.6 16 Sur 26 Sur 0 -- -- 70
2020-04-05 22:00:00 14.5 19 Sur 29 Sur 0 -- -- 60
2020-04-05 21:00:00 14.9 19 Sur 33 Sur 0 -- -- 59
2020-04-05 20:00:00 15.3 19 Sur 41 Sur 0 -- -- 59
2020-04-05 19:00:00 15.9 33 Sur 43 Sur 0 -- -- 54
2020-04-05 18:00:00 16.5 30 Sur 43 Sur 0 -- -- 54
2020-04-05 17:00:00 16.7 32 Sur 50 Sur 0 -- -- 51
2020-04-05 16:00:00 18.2 28 Sur 53 Sur 0 -- -- 48
2020-04-05 15:00:00 17.3 31 Sur 53 Sur 0 -- -- 49
2020-04-05 14:00:00 16.7 37 Sur 56 Sur 0 -- -- 49
2020-04-05 13:00:00 15.7 31 Sur 42 Sur 0 -- -- 50
2020-04-05 12:00:00 12.9 28 Sudeste 41 Sudeste 0 -- -- 64
2020-04-05 11:00:00 13 31 Sudeste 41 Sur 0 -- -- 64
2020-04-05 10:00:00 12.6 27 Sur 37 Sur 0 -- -- 64
2020-04-05 09:00:00 9.6 27 Sudeste 36 Sudeste 0 -- -- 77
2020-04-05 08:00:00 7.4 23 Sudeste 35 Sudeste 0 -- -- 83
2020-04-05 07:00:00 8.4 20 Sudeste 27 Sudeste 0 -- -- 81
2020-04-05 06:00:00 9.6 18 Sudeste 30 Sur 0 -- -- 76
2020-04-05 05:00:00 10.4 23 Sur 31 Sur 0 -- -- 72
2020-04-05 04:00:00 9.9 17 Sur 24 Sur 0 -- -- 72
2020-04-05 03:00:00 10.2 17 Sur 28 Sudeste 0 -- -- 69
2020-04-05 02:00:00 10.6 25 Sudeste 37 Sudeste 0 -- -- 68
2020-04-05 01:00:00 11.1 24 Sudeste 31 Sudeste 0 -- -- 66
2020-04-05 00:00:00 11.4 17 Sudeste 27 Sudeste 0 -- -- 65
2020-04-04 23:00:00 9.8 12 Sudeste 17 Sudeste 0 -- -- 69
2020-04-04 22:00:00 10.7 14 Sudeste 19 Sudeste 0 -- -- 65
2020-04-04 21:00:00 12.2 11 Sudeste 31 Sudeste 0 -- -- 58
2020-04-04 20:00:00 13.9 24 Sudeste 44 Sudeste 0 -- -- 48
2020-04-04 19:00:00 14.9 31 Sudeste 49 Sudeste 0 -- -- 45
2020-04-04 18:00:00 15.4 26 Sudeste 41 Sudeste 0 -- -- 45
2020-04-04 17:00:00 16.2 29 Sudeste 40 Sudeste 0 -- -- 41
2020-04-04 16:00:00 17.1 18 Sudeste 39 Sur 0 -- -- 37
2020-04-04 15:00:00 17.6 11 Sur 25 Este 0 -- -- 38
2020-04-04 14:00:00 16.1 11 Sudeste 31 Sur 0 -- -- 38
2020-04-04 13:00:00 15.5 19 Sudeste 35 Sudeste 0 -- -- 44
2020-04-04 12:00:00 14.3 5 Sudeste 16 Nordeste 0 -- -- 39
2020-04-04 11:00:00 12 2 Sur 13 Sudoeste 0 -- -- 55
2020-04-04 10:00:00 8.4 4 Sudoeste 17 Sudeste 0 -- -- 70
2020-04-04 09:00:00 4.2 15 Sudeste 20 Sudeste 0 -- -- 77
2020-04-04 08:00:00 3.2 11 Sudeste 17 Sudeste 0 -- -- 77
2020-04-04 07:00:00 1.7 13 Sudeste 20 Sudeste 0 -- -- 85
2020-04-04 06:00:00 3.1 7 Sudeste 17 Sudeste 0 -- -- 80
2020-04-04 05:00:00 4 16 Sudeste 23 Sudeste 0 -- -- 80
2020-04-04 04:00:00 4.4 18 Sudeste 24 Sudeste 0 -- -- 82
2020-04-04 03:00:00 3.8 13 Sudeste 18 Sudeste 0 -- -- 82
2020-04-04 02:00:00 4.1 17 Sudeste 20 Sudeste 0 -- -- 80
2020-04-04 01:00:00 5 11 Sudeste 17 Este 0 -- -- 76
2020-04-04 00:00:00 6.6 13 Sudeste 19 Sudeste 0 -- -- 73
2020-04-03 23:00:00 8.7 0 Calma 9 Nordeste 0 -- -- 62
2020-04-03 22:00:00 9.6 6 Nordeste 8 Nordeste 0 -- -- 61
2020-04-03 21:00:00 11 5 Noroeste 12 Noroeste 0 -- -- 57
2020-04-03 20:00:00 14.6 4 Noroeste 18 Noroeste 0 -- -- 47
2020-04-03 19:00:00 14.9 6 Oeste 14 Nordeste 0 -- -- 45
2020-04-03 18:00:00 14.5 6 Nordeste 13 Oeste 0 -- -- 45
2020-04-03 17:00:00 14.1 5 Sur 17 Sudoeste 0 -- -- 44
2020-04-03 16:00:00 13.5 4 Nordeste 15 Norte 0 -- -- 48
2020-04-03 15:00:00 12.4 8 Sudoeste 17 Oeste 0 -- -- 56
2020-04-03 14:00:00 11.7 4 Oeste 23 Norte 0 -- -- 57
2020-04-03 13:00:00 10.2 6 Sur 15 Sudoeste 0 -- -- 63
2020-04-03 12:00:00 7.6 6 Noroeste 13 Oeste 0 -- -- 73
2020-04-03 11:00:00 6 3 Sudoeste 8 Sudoeste 0 -- -- 79
2020-04-03 10:00:00 2.8 2 Sudoeste 5 Sur 0 -- -- 94
2020-04-03 09:00:00 0.7 4 Sudoeste 6 Sudoeste 0 -- -- 95
2020-04-03 08:00:00 -0.3 0 Calma 3 Este 0 -- -- 94
2020-04-03 07:00:00 0.3 0 Calma 2 Norte 0 -- -- 94
2020-04-03 06:00:00 0.6 0 Calma 4 Nordeste 0 -- -- 93
2020-04-03 05:00:00 0.7 2 Este 8 Norte 0 -- -- 93
2020-04-03 04:00:00 1.4 4 Norte 8 Norte 0 -- -- 91
2020-04-03 03:00:00 2.3 0 Calma 14 Nordeste 0 -- -- 91
2020-04-03 02:00:00 2.9 11 Nordeste 22 Nordeste 0 -- -- 88
2020-04-03 01:00:00 4.4 17 Nordeste 23 Nordeste 0 -- -- 85
2020-04-03 00:00:00 5.8 19 Nordeste 28 Nordeste 0 -- -- 82
2020-04-02 23:00:00 6.3 7 Nordeste 12 Norte 0 -- -- 83
2020-04-02 22:00:00 6.8 10 Norte 21 Norte 0 -- -- 82
2020-04-02 21:00:00 7.7 10 Norte 28 Norte 0 -- -- 77
2020-04-02 20:00:00 9.3 20 Norte 32 Norte 0 -- -- 69
2020-04-02 19:00:00 9.4 14 Norte 42 Norte 0 -- -- 74
2020-04-02 18:00:00 11.1 17 Norte 27 Nordeste 0 -- -- 67
2020-04-02 17:00:00 9.8 15 Norte 31 Norte 0.4 -- -- 75
2020-04-02 16:00:00 11.5 13 Nordeste 22 Nordeste 0 -- -- 65
2020-04-02 15:00:00 9.9 12 Nordeste 23 Nordeste 0 -- -- 76
2020-04-02 14:00:00 9.1 13 Norte 23 Nordeste 0 -- -- 79
2020-04-02 13:00:00 9.3 11 Nordeste 19 Nordeste 0 -- -- 83
2020-04-02 12:00:00 6.1 3 Norte 9 Norte 0 -- -- 97
2020-04-02 11:00:00 4.3 3 Nordeste 13 Sudeste 0 -- -- 98
2020-04-02 10:00:00 3.5 5 Sudeste 12 Sudeste 0 -- -- 99
2020-04-02 09:00:00 2.9 7 Sudeste 13 Sudeste 0 -- -- 98
2020-04-02 08:00:00 3.3 9 Sudeste 11 Sudeste 0 -- -- 98
2020-04-02 07:00:00 3.5 5 Sudeste 10 Sudeste 0 -- -- 98
2020-04-02 06:00:00 3.3 2 Oeste 9 Sudoeste 0 -- -- 97
2020-04-02 05:00:00 3.9 7 Sudoeste 12 Oeste 0 -- -- 97
2020-04-02 04:00:00 4.6 7 Oeste 12 Sudoeste 0 -- -- 96
2020-04-02 03:00:00 3.8 7 Sur 15 Sur 0 -- -- 96
2020-04-02 02:00:00 1.4 10 Sudeste 15 Sudeste 0 -- -- 94
2020-04-02 01:00:00 2.8 2 Sudeste 8 Oeste 0 -- -- 92
2020-04-02 00:00:00 4.5 4 Oeste 9 Sudoeste 0 -- -- 92
2020-04-01 23:00:00 5.3 5 Noroeste 13 Sudeste 0 -- -- 90
2020-04-01 22:00:00 6.6 11 Este 14 Este 0 -- -- 85
2020-04-01 21:00:00 9 8 Sudoeste 18 Sur 0 -- -- 56
2020-04-01 20:00:00 12 14 Sur 27 Sudoeste 0 -- -- 41
2020-04-01 19:00:00 11.9 18 Sur 25 Sur 0 -- -- 45
2020-04-01 18:00:00 11.4 15 Sur 27 Sudoeste 0 -- -- 49
2020-04-01 17:00:00 10.9 16 Sur 25 Sudeste 0 -- -- 59
2020-04-01 16:00:00 11.3 9 Este 16 Sudeste 0 -- -- 65
2020-04-01 15:00:00 9.5 12 Sudeste 24 Sudeste 0 -- -- 73
2020-04-01 14:00:00 8.5 18 Sur 36 Sur 0 -- -- 78
2020-04-01 13:00:00 9 25 Sur 38 Sur 0 -- -- 74
2020-04-01 12:00:00 9.7 3 Este 9 Oeste 0 -- -- 79
2020-04-01 11:00:00 8.1 3 Noroeste 10 Oeste 0 -- -- 87
2020-04-01 10:00:00 6.6 5 Nordeste 11 Este 0 -- -- 94
2020-04-01 09:00:00 5 6 Nordeste 10 Oeste 0 -- -- 95
2020-04-01 08:00:00 3.6 5 Norte 18 Sudeste 0 -- -- 93
2020-04-01 07:00:00 5 13 Sudeste 26 Sur 0 -- -- 88
2020-04-01 06:00:00 6.5 23 Sudeste 30 Sur 0 -- -- 87
2020-04-01 05:00:00 7.2 23 Sudeste 36 Sur 0 -- -- 87
2020-04-01 04:00:00 7.1 14 Sur 27 Sur 0 -- -- 85
2020-04-01 03:00:00 6.8 22 Sudeste 35 Sudeste 0 -- -- 85
2020-04-01 02:00:00 6.6 24 Sudeste 33 Sudeste 0 -- -- 88
2020-04-01 01:00:00 6.1 4 Sudeste 12 Nordeste 0 -- -- 93
2020-04-01 00:00:00 6.9 0 Calma 6 Sudoeste 0.6 -- -- 92
2020-03-31 23:00:00 7.1 5 Sudeste 17 Sudoeste 4 -- -- 91
2020-03-31 22:00:00 8.4 4 Sudoeste 10 Sur 0.2 -- -- 79
2020-03-31 21:00:00 8.8 3 Nordeste 24 Sudeste 0 -- -- 78
2020-03-31 20:00:00 9.7 17 Sudeste 36 Sudeste 0 -- -- 72
2020-03-31 19:00:00 10.3 26 Sudeste 35 Sudeste 0 -- -- 72
2020-03-31 18:00:00 10.1 14 Sudeste 33 Sudeste 0 -- -- 76
2020-03-31 17:00:00 8.7 0 Calma 23 Sudoeste 1.4 -- -- 80
2020-03-31 16:00:00 9.8 7 Sudoeste 17 Este 0 -- -- 69
2020-03-31 15:00:00 9.7 9 Nordeste 24 Nordeste 0 -- -- 69
2020-03-31 14:00:00 9.2 14 Nordeste 26 Nordeste 0 -- -- 71
2020-03-31 13:00:00 5.9 6 Norte 9 Norte 0.4 -- -- 89
2020-03-31 12:00:00 3.6 4 Norte 10 Nordeste 0 -- -- 89
2020-03-31 11:00:00 1.4 4 Norte 9 Nordeste 0.6 -- -- 89
2020-03-31 10:00:00 0.5 9 Nordeste 14 Nordeste 0 -- -- 88
2020-03-31 09:00:00 -0.4 3 Nordeste 17 Nordeste 0 -- -- 90
2020-03-31 08:00:00 -1 11 Nordeste 20 Nordeste 0 -- -- 91
2020-03-31 07:00:00 -1.3 5 Norte 18 Nordeste 0 -- -- 91
2020-03-31 06:00:00 -0.8 9 Nordeste 18 Nordeste 0 -- -- 92
2020-03-31 05:00:00 -0.8 15 Nordeste 24 Nordeste 0 -- -- 93
2020-03-31 04:00:00 -0.5 20 Nordeste 27 Nordeste 0 -- -- 94
2020-03-31 03:00:00 -0.4 17 Nordeste 23 Nordeste 0 -- -- 95
2020-03-31 02:00:00 -0.5 13 Nordeste 27 Nordeste 0 -- -- 93
2020-03-31 01:00:00 0.2 20 Nordeste 30 Nordeste 0 -- -- 87
2020-03-31 00:00:00 0.9 19 Nordeste 31 Nordeste 0 -- -- 76
2020-03-30 23:00:00 2.4 14 Nordeste 32 Nordeste 0 -- -- 58
2020-03-30 22:00:00 2.8 19 Nordeste 33 Nordeste 0 -- -- 55
2020-03-30 21:00:00 3.3 14 Nordeste 25 Nordeste 0 -- -- 50
2020-03-30 20:00:00 3.9 14 Nordeste 27 Norte 0 -- -- 48
2020-03-30 19:00:00 4.5 18 Nordeste 31 Norte 0 -- -- 46
2020-03-30 18:00:00 4.8 18 Norte 33 Norte 0 -- -- 48
2020-03-30 17:00:00 4.9 16 Nordeste 32 Nordeste 0 -- -- 50
2020-03-30 16:00:00 4.7 18 Nordeste 31 Nordeste 0 -- -- 51
2020-03-30 15:00:00 3.7 18 Nordeste 30 Norte 0 -- -- 55
2020-03-30 14:00:00 3 20 Nordeste 34 Nordeste 0 -- -- 57
2020-03-30 13:00:00 2.5 24 Norte 34 Norte 0 -- -- 61
2020-03-30 12:00:00 2 25 Norte 39 Norte 0 -- -- 63
2020-03-30 11:00:00 1.8 19 Nordeste 36 Nordeste 0 -- -- 64
2020-03-30 10:00:00 1.4 22 Norte 36 Norte 0 -- -- 66
2020-03-30 09:00:00 1.6 17 Norte 31 Norte 0 -- -- 68
2020-03-30 08:00:00 1.5 23 Norte 44 Norte 0 -- -- 76
2020-03-30 07:00:00 2.1 18 Norte 36 Norte 0 -- -- 80
2020-03-30 06:00:00 2.5 17 Norte 31 Norte 0 -- -- 78
2020-03-30 05:00:00 2.7 19 Norte 37 Norte 0 -- -- 79
2020-03-30 04:00:00 3.7 17 Norte 28 Norte 0 -- -- 81
2020-03-30 03:00:00 4.1 19 Norte 34 Norte 0 -- -- 78
2020-03-30 02:00:00 4.7 21 Nordeste 35 Nordeste 0 -- -- 77
2020-03-30 01:00:00 5.4 21 Nordeste 40 Nordeste 0 -- -- 77
2020-03-30 00:00:00 6.4 25 Nordeste 44 Nordeste 0 -- -- 72
2020-03-29 23:00:00 7.3 26 Nordeste 38 Nordeste 0 -- -- 66
2020-03-29 22:00:00 9.1 23 Nordeste 37 Norte 0 -- -- 57
2020-03-29 21:00:00 10.8 17 Nordeste 24 Nordeste 0 -- -- 48
2020-03-29 20:00:00 13.1 11 Norte 22 Norte 0 -- -- 46
2020-03-29 19:00:00 14.5 16 Norte 22 Norte 0 -- -- 42
2020-03-29 18:00:00 14.6 13 Norte 22 Norte 0 -- -- 44
2020-03-29 17:00:00 14.5 14 Noroeste 29 Norte 0 -- -- 45
2020-03-29 16:00:00 16.3 7 Noroeste 23 Oeste 0 -- -- 38
2020-03-29 15:00:00 14.7 11 Noroeste 25 Noroeste 0 -- -- 42
2020-03-29 14:00:00 14 12 Oeste 17 Oeste 0 -- -- 49
2020-03-29 13:00:00 13.3 6 Sudoeste 15 Oeste 0 -- -- 50
2020-03-29 12:00:00 10.9 5 Oeste 14 Sudoeste 0 -- -- 55
2020-03-29 11:00:00 8.3 11 Sudoeste 19 Sudoeste 0 -- -- 62
2020-03-29 10:00:00 6.3 14 Sudoeste 18 Sudoeste 0 -- -- 66
2020-03-29 09:00:00 5.4 8 Sudoeste 12 Sudoeste 0 -- -- 70
2020-03-29 08:00:00 1.4 5 Sur 12 Sudoeste 0 -- -- 82
2020-03-29 07:00:00 2.4 9 Sur 12 Sur 0 -- -- 76
2020-03-29 06:00:00 5.8 10 Sudoeste 15 Sudoeste 0 -- -- 64
2020-03-29 05:00:00 3 8 Sudeste 14 Sur 0 -- -- 75
2020-03-29 03:00:00 4 12 Sudeste 21 Sur 0 -- -- 70
2020-03-29 01:00:00 7.9 20 Sur 26 Sudoeste 0 -- -- 52
2020-03-29 00:00:00 7.1 19 Sudoeste 23 Sudoeste 0 -- -- 58
2020-03-28 23:00:00 7.5 12 Sudoeste 18 Sudoeste 0 -- -- 57
2020-03-28 22:00:00 8.4 14 Sudoeste 22 Sur 0 -- -- 55
2020-03-28 21:00:00 10.1 17 Sudoeste 21 Sudoeste 0 -- -- 51
2020-03-28 20:00:00 11.9 4 Oeste 12 Oeste 0 -- -- 42
2020-03-28 19:00:00 14.3 5 Oeste 12 Sudeste 0 -- -- 40
2020-03-28 18:00:00 15.1 5 Sudeste 14 Sudeste 0 -- -- 35
2020-03-28 17:00:00 15.8 4 Sudeste 17 Sur 0 -- -- 34
2020-03-28 16:00:00 15.1 9 Este 21 Sudeste 0 -- -- 33
2020-03-28 15:00:00 15 9 Sudeste 18 Sudeste 0 -- -- 33
2020-03-28 14:00:00 14 5 Noroeste 13 Sur 0 -- -- 36
2020-03-28 13:00:00 12.8 7 Sudeste 15 Este 0 -- -- 35
2020-03-28 12:00:00 11.5 4 Este 12 Este 0 -- -- 41
2020-03-28 11:00:00 8.5 3 Noroeste 9 Norte 0 -- -- 57
2020-03-28 10:00:00 5.3 2 Norte 6 Noroeste 0 -- -- 68
2020-03-28 09:00:00 3.6 0 Calma 6 Este 0 -- -- 74
2020-03-28 08:00:00 -0.1 5 Sudeste 11 Sudeste 0 -- -- 86
2020-03-28 07:00:00 -1.8 12 Sudeste 19 Sudeste 0 -- -- 88
2020-03-28 06:00:00 -0.8 9 Sudeste 12 Sudeste 0 -- -- 86
2020-03-28 05:00:00 -1.4 8 Sudeste 10 Sudeste 0 -- -- 86
2020-03-28 04:00:00 -0.5 6 Sudeste 8 Sudeste 0 -- -- 82
2020-03-28 03:00:00 1.2 3 Sudoeste 9 Sudeste 0 -- -- 77
2020-03-28 02:00:00 0.6 4 Sudeste 6 Sudeste 0 -- -- 79
2020-03-28 01:00:00 2.4 0 Calma 9 Oeste 0 -- -- 72
2020-03-28 00:00:00 2.3 8 Sur 10 Oeste 0 -- -- 71
2020-03-27 23:00:00 4.1 3 Sudeste 12 Sudeste 0 -- -- 65
2020-03-27 22:00:00 5.2 8 Sur 16 Sudoeste 0 -- -- 60
2020-03-27 21:00:00 6.3 12 Sur 15 Sur 0 -- -- 56
2020-03-27 20:00:00 7.8 5 Este 13 Este 0 -- -- 47
2020-03-27 19:00:00 10.5 12 Este 20 Sudeste 0 -- -- 35
2020-03-27 18:00:00 11.4 12 Sudeste 23 Este 0 -- -- 35
2020-03-27 17:00:00 11.4 13 Este 31 Sudeste 0 -- -- 35
2020-03-27 16:00:00 11.3 22 Este 37 Este 0 -- -- 36
2020-03-27 15:00:00 11.1 21 Este 39 Este 0 -- -- 34
2020-03-27 14:00:00 10.4 15 Este 28 Este 0 -- -- 36
2020-03-27 13:00:00 10 11 Este 23 Este 0 -- -- 42
2020-03-27 12:00:00 8.7 11 Sudeste 22 Este 0 -- -- 51
2020-03-27 11:00:00 7 7 Sudeste 15 Sudeste 0 -- -- 56
2020-03-27 10:00:00 4.3 10 Nordeste 17 Nordeste 0 -- -- 63
2020-03-27 09:00:00 1.8 13 Nordeste 20 Este 0 -- -- 69
2020-03-27 08:00:00 -1.7 0 Calma 10 Nordeste 0 -- -- 84
2020-03-27 07:00:00 -2.7 8 Nordeste 12 Norte 0 -- -- 83
2020-03-27 06:00:00 -1.5 9 Nordeste 12 Nordeste 0 -- -- 79
2020-03-27 05:00:00 0 0 Calma 20 Norte 0 -- -- 74
2020-03-27 04:00:00 1.7 14 Nordeste 34 Nordeste 0 -- -- 67
2020-03-27 03:00:00 2.5 17 Nordeste 27 Nordeste 0 -- -- 68
2020-03-27 02:00:00 3.2 15 Nordeste 29 Nordeste 0 -- -- 63
2020-03-27 01:00:00 3.9 23 Nordeste 34 Nordeste 0 -- -- 64
2020-03-27 00:00:00 3.9 14 Nordeste 21 Nordeste 0 -- -- 70
2020-03-26 23:00:00 3.1 10 Nordeste 20 Nordeste 0 -- -- 73
2020-03-26 22:00:00 3.4 13 Nordeste 18 Nordeste 0 -- -- 72
2020-03-26 21:00:00 4.6 13 Nordeste 17 Nordeste 0 -- -- 68
2020-03-26 20:00:00 6.4 13 Nordeste 21 Nordeste 0 -- -- 60
2020-03-26 19:00:00 8.7 19 Nordeste 26 Nordeste 0 -- -- 53
2020-03-26 18:00:00 10.5 12 Nordeste 23 Noroeste 0 -- -- 48
2020-03-26 17:00:00 10.7 12 Nordeste 29 Norte 0 -- -- 47
2020-03-26 16:00:00 11.1 13 Norte 31 Norte 0 -- -- 48
2020-03-26 15:00:00 11 17 Norte 34 Norte 0 -- -- 44
2020-03-26 14:00:00 10.3 17 Norte 28 Norte 0 -- -- 45
2020-03-26 13:00:00 9.2 16 Noroeste 31 Norte 0 -- -- 49
2020-03-26 12:00:00 8.5 8 Norte 22 Norte 0 -- -- 53
2020-03-26 11:00:00 7.2 14 Norte 22 Norte 0 -- -- 57
2020-03-26 10:00:00 4.7 5 Oeste 9 Oeste 0 -- -- 68
2020-03-26 09:00:00 3.3 0 Calma 4 Norte 0 -- -- 69
2020-03-26 08:00:00 0.9 0 Calma 3 Nordeste 0 -- -- 74
2020-03-26 07:00:00 0.2 0 Calma 6 Oeste 0 -- -- 68
2020-03-26 06:00:00 0.8 0 Calma 5 Nordeste 0 -- -- 59
2020-03-26 05:00:00 1.9 4 Nordeste 6 Norte 0 -- -- 56
2020-03-26 04:00:00 1.8 5 Nordeste 19 Nordeste 0 -- -- 59
2020-03-26 03:00:00 2.4 11 Nordeste 15 Nordeste 0 -- -- 59
2020-03-26 02:00:00 3.9 4 Nordeste 11 Nordeste 0 -- -- 56
2020-03-26 01:00:00 5.2 10 Nordeste 18 Este 0 -- -- 48
2020-03-26 00:00:00 4.9 3 Este 12 Este 0 -- -- 61
2020-03-25 23:00:00 6.7 6 Sudeste 12 Nordeste 0 -- -- 54
2020-03-25 22:00:00 8.6 3 Nordeste 17 Norte 0 -- -- 50
2020-03-25 21:00:00 10.8 3 Noroeste 6 Norte 0 -- -- 42
2020-03-25 20:00:00 11.6 6 Norte 14 Norte 0 -- -- 40
2020-03-25 19:00:00 14 13 Norte 22 Norte 0 -- -- 36
2020-03-25 18:00:00 15.3 14 Norte 32 Noroeste 0 -- -- 34
2020-03-25 17:00:00 14.8 18 Noroeste 30 Noroeste 0 -- -- 41
2020-03-25 16:00:00 14.9 12 Oeste 29 Oeste 0 -- -- 38
2020-03-25 15:00:00 13.6 15 Noroeste 28 Noroeste 0 -- -- 51
2020-03-25 14:00:00 13.4 17 Noroeste 30 Noroeste 0 -- -- 53
2020-03-25 13:00:00 12.6 15 Oeste 24 Oeste 0 -- -- 61
2020-03-25 12:00:00 12.2 11 Oeste 18 Sudoeste 0 -- -- 65
2020-03-25 11:00:00 9.8 10 Oeste 19 Oeste 0 -- -- 76
2020-03-25 10:00:00 7.5 7 Sudoeste 17 Sudoeste 0 -- -- 85
2020-03-25 09:00:00 6.3 12 Sudoeste 18 Sudoeste 0 -- -- 84
2020-03-25 08:00:00 3.1 8 Sudeste 15 Sudeste 0 -- -- 90
2020-03-25 07:00:00 3.9 8 Sudeste 13 Sudeste 0 -- -- 85
2020-03-25 06:00:00 4.6 2 Oeste 19 Sur 0 -- -- 83
2020-03-25 05:00:00 5.5 0 Calma 10 Sur 0 -- -- 83
2020-03-25 04:00:00 6.1 7 Sudoeste 12 Oeste 0 -- -- 80
2020-03-25 03:00:00 4.6 3 Nordeste 10 Sudoeste 0 -- -- 83
2020-03-25 02:00:00 4.8 4 Sur 9 Norte 0 -- -- 85
2020-03-25 01:00:00 4.9 9 Norte 16 Norte 0 -- -- 82
2020-03-25 00:00:00 5.8 10 Sudeste 14 Sudeste 0 -- -- 82
2020-03-24 23:00:00 6.5 3 Sudeste 10 Este 0 -- -- 78
2020-03-24 22:00:00 6.7 3 Nordeste 15 Nordeste 0 -- -- 79
2020-03-24 21:00:00 8.3 13 Nordeste 18 Nordeste 0 -- -- 72
2020-03-24 20:00:00 9.7 12 Nordeste 26 Nordeste 0 -- -- 66
2020-03-24 19:00:00 12.7 22 Nordeste 31 Nordeste 0 -- -- 55
2020-03-24 18:00:00 14.4 19 Este 28 Este 0 -- -- 53
2020-03-24 17:00:00 15 18 Este 28 Este 0 -- -- 49
2020-03-24 16:00:00 15.1 14 Nordeste 26 Nordeste 0 -- -- 49
2020-03-24 15:00:00 14.8 18 Nordeste 38 Este 0 -- -- 48
2020-03-24 14:00:00 13.9 20 Este 30 Nordeste 0 -- -- 55
2020-03-24 13:00:00 14.6 19 Nordeste 30 Este 0 -- -- 52
2020-03-24 12:00:00 13.7 11 Este 22 Este 0 -- -- 56
2020-03-24 11:00:00 10.7 12 Nordeste 26 Nordeste 0 -- -- 74
2020-03-24 10:00:00 9.6 18 Nordeste 27 Nordeste 0 -- -- 75
2020-03-24 09:00:00 7.8 16 Nordeste 30 Este 0 -- -- 84
2020-03-24 08:00:00 6 26 Este 35 Este 0 -- -- 87
2020-03-24 07:00:00 5.5 23 Este 31 Nordeste 0 -- -- 88
2020-03-24 06:00:00 5.7 24 Este 32 Este 0 -- -- 84
2020-03-24 05:00:00 5.7 22 Este 30 Este 0 -- -- 87
2020-03-24 04:00:00 5.7 20 Este 27 Este 0 -- -- 89
2020-03-24 03:00:00 6 9 Este 16 Este 0 -- -- 87
2020-03-24 02:00:00 5 4 Oeste 11 Sudeste 0 -- -- 89
2020-03-24 01:00:00 5.5 10 Este 16 Este 0 -- -- 86
2020-03-24 00:00:00 5.5 11 Este 17 Este 0 -- -- 87
2020-03-23 23:00:00 6 11 Sudeste 22 Este 0 -- -- 84
2020-03-23 22:00:00 6.8 8 Este 21 Este 0 -- -- 81
2020-03-23 21:00:00 8 17 Este 27 Este 0 -- -- 78
2020-03-23 20:00:00 9.5 18 Este 28 Este 0 -- -- 72
2020-03-23 19:00:00 11.8 22 Este 37 Este 0 -- -- 61
2020-03-23 18:00:00 13.5 28 Este 37 Este 0 -- -- 58
2020-03-23 17:00:00 14.3 23 Este 40 Este 0 -- -- 54
2020-03-23 16:00:00 13.5 27 Este 41 Este 0 -- -- 56
2020-03-23 15:00:00 12.4 26 Este 46 Este 0 -- -- 62
2020-03-23 14:00:00 12.9 24 Este 37 Este 0 -- -- 64
2020-03-23 13:00:00 11.8 20 Nordeste 34 Nordeste 0 -- -- 67
2020-03-23 12:00:00 11.5 20 Este 29 Este 0 -- -- 67
2020-03-23 11:00:00 11.7 17 Este 30 Nordeste 0 -- -- 72
2020-03-23 10:00:00 9.5 12 Nordeste 18 Nordeste 0 -- -- 87
2020-03-23 09:00:00 5.3 3 Noroeste 9 Nordeste 0 -- -- 95
2020-03-23 08:00:00 4 3 Sur 8 Nordeste 0 -- -- 95
2020-03-23 07:00:00 4.7 2 Este 12 Norte 0 -- -- 95
2020-03-23 06:00:00 4 5 Sudeste 10 Este 0 -- -- 95
2020-03-23 05:00:00 3.5 5 Nordeste 13 Sudeste 0 -- -- 94
2020-03-23 04:00:00 3.1 6 Este 9 Este 0 -- -- 92
2020-03-23 03:00:00 4.7 5 Este 8 Este 0 -- -- 94
2020-03-23 02:00:00 5 6 Este 9 Este 0 -- -- 95
2020-03-23 01:00:00 4.8 3 Este 6 Norte 0 -- -- 95
2020-03-23 00:00:00 4.9 2 Noroeste 13 Sudeste 0 -- -- 93
2020-03-22 23:00:00 6.3 12 Sudeste 15 Sudeste 0 -- -- 92
2020-03-22 22:00:00 7 0 Calma 9 Norte 0 -- -- 90
2020-03-22 21:00:00 8.5 5 Norte 8 Norte 0 -- -- 85
2020-03-22 20:00:00 8.8 5 Noroeste 15 Sur 0 -- -- 84
2020-03-22 19:00:00 9.2 6 Oeste 14 Noroeste 0 -- -- 87
2020-03-22 18:00:00 9.7 10 Noroeste 16 Noroeste 2.6 -- -- 86
2020-03-22 17:00:00 11.4 10 Noroeste 16 Noroeste 0 -- -- 73
2020-03-22 16:00:00 11.9 10 Oeste 16 Noroeste 0 -- -- 67
2020-03-22 15:00:00 11.8 2 Este 8 Sur 0 -- -- 71
2020-03-22 14:00:00 11.8 6 Sudeste 15 Este 0 -- -- 70
2020-03-22 13:00:00 10.3 3 Nordeste 9 Nordeste 0 -- -- 80
2020-03-22 12:00:00 8.7 4 Norte 10 Este 0.2 -- -- 86
2020-03-22 11:00:00 7.9 8 Este 12 Nordeste 0 -- -- 91
2020-03-22 10:00:00 7 6 Nordeste 10 Nordeste 0.2 -- -- 96
2020-03-22 09:00:00 6.5 4 Norte 5 Norte 0 -- -- 96
2020-03-22 08:00:00 6 0 Calma 4 Norte 0.2 -- -- 96
2020-03-22 07:00:00 5.8 2 Nordeste 4 Norte 0 -- -- 96
2020-03-22 06:00:00 5.6 0 Calma 7 Noroeste 0 -- -- 96
2020-03-22 05:00:00 5.7 4 Norte 9 Nordeste 0 -- -- 96
2020-03-22 04:00:00 5.9 5 Nordeste 8 Nordeste 0 -- -- 95
2020-03-22 03:00:00 5.9 3 Nordeste 8 Nordeste 0 -- -- 94
2020-03-22 02:00:00 5.9 5 Nordeste 6 Nordeste 0 -- -- 93
2020-03-22 01:00:00 6 4 Este 12 Sudeste 0.2 -- -- 91
2020-03-22 00:00:00 6.1 12 Sudeste 13 Sudeste 0 -- -- 89
2020-03-21 23:00:00 6.5 7 Sudeste 19 Sur 0 -- -- 84
2020-03-21 22:00:00 7 9 Sur 19 Sur 0.2 -- -- 81
2020-03-21 21:00:00 7.1 11 Sur 15 Sudoeste 0 -- -- 83
2020-03-21 20:00:00 7.1 12 Sur 18 Sur 0.4 -- -- 84
2020-03-21 19:00:00 7.5 8 Sur 14 Sur 0.4 -- -- 86
2020-03-21 18:00:00 7.9 13 Sur 19 Sur 0.4 -- -- 83
2020-03-21 17:00:00 8.1 17 Sur 33 Sur 0.4 -- -- 82
2020-03-21 16:00:00 10.1 25 Sur 34 Sur 0 -- -- 76
2020-03-21 15:00:00 11.2 17 Sur 24 Sur 0 -- -- 70
2020-03-21 14:00:00 10.7 16 Sur 30 Sur 0 -- -- 72
2020-03-21 13:00:00 12.5 20 Sudeste 28 Sur 0 -- -- 65
2020-03-21 12:00:00 11.3 6 Sudeste 23 Sudoeste 0 -- -- 69
2020-03-21 11:00:00 10.3 12 Sudoeste 19 Sudoeste 0 -- -- 72
2020-03-21 10:00:00 8.4 8 Oeste 14 Sudoeste 0 -- -- 83
2020-03-21 09:00:00 6.6 4 Norte 9 Norte 0 -- -- 89
2020-03-21 08:00:00 4 4 Este 11 Norte 0 -- -- 92
2020-03-21 07:00:00 4.3 4 Norte 8 Norte 0 -- -- 88
2020-03-21 06:00:00 5 2 Oeste 6 Oeste 0 -- -- 88
2020-03-21 05:00:00 5.8 4 Sudeste 24 Sudeste 0 -- -- 85
2020-03-21 04:00:00 6.5 13 Sudeste 25 Sudeste 0 -- -- 86
2020-03-21 03:00:00 5.8 17 Sudeste 26 Sudeste 0 -- -- 85
2020-03-21 02:00:00 6.4 14 Sudeste 23 Sur 0 -- -- 84
2020-03-21 01:00:00 7.6 5 Sudeste 13 Sur 0 -- -- 80
2020-03-21 00:00:00 6.9 3 Este 13 Sudeste 0 -- -- 85
2020-03-20 23:00:00 6.8 12 Sudeste 19 Sudeste 0 -- -- 86
2020-03-20 22:00:00 7.9 14 Sudeste 23 Sudeste 0 -- -- 82
2020-03-20 21:00:00 8.7 17 Sudeste 34 Sudeste 0 -- -- 81
2020-03-20 20:00:00 9.8 25 Sur 32 Sudeste 0 -- -- 77
2020-03-20 19:00:00 10.9 18 Sudoeste 33 Sur 0 -- -- 72
2020-03-20 18:00:00 12.3 20 Sur 40 Sur 0 -- -- 67
2020-03-20 17:00:00 13 26 Sur 41 Sur 0 -- -- 67
2020-03-20 16:00:00 13.5 29 Sur 41 Sur 0 -- -- 64
2020-03-20 15:00:00 13.4 27 Sur 46 Sur 0 -- -- 62
2020-03-20 14:00:00 14.7 23 Sur 32 Sur 0 -- -- 60
2020-03-20 13:00:00 13.2 4 Sudeste 17 Sudeste 0 -- -- 68
2020-03-20 12:00:00 12.3 6 Sur 15 Sudoeste 0 -- -- 70
2020-03-20 11:00:00 11.1 2 Este 8 Norte 0 -- -- 74
2020-03-20 10:00:00 10.1 4 Nordeste 10 Sur 0 -- -- 76
2020-03-20 09:00:00 7.5 5 Sudeste 9 Sudeste 0 -- -- 93
2020-03-20 08:00:00 6.1 8 Sudeste 9 Sudeste 0 -- -- 93
2020-03-20 07:00:00 5.9 5 Sudeste 12 Este 0 -- -- 92
2020-03-20 06:00:00 7.2 8 Sudeste 15 Sur 0 -- -- 87
2020-03-20 05:00:00 8 10 Sudeste 23 Sur 0 -- -- 85
2020-03-20 04:00:00 8.6 17 Sur 22 Sur 0 -- -- 83
2020-03-20 03:00:00 9.1 15 Sur 24 Sur 0 -- -- 81
2020-03-20 02:00:00 9.3 17 Sur 24 Sur 0 -- -- 79
2020-03-20 01:00:00 9.3 16 Sur 27 Sur 0 -- -- 80
2020-03-20 00:00:00 9.5 19 Sur 28 Sur 0 -- -- 80
2020-03-19 23:00:00 10.2 19 Sur 31 Sur 0 -- -- 77
2020-03-19 22:00:00 10.2 21 Sudeste 27 Sudeste 0 -- -- 74
2020-03-19 21:00:00 10.1 9 Sudeste 13 Sudeste 0 -- -- 78
2020-03-19 20:00:00 11.7 8 Sudoeste 11 Sudoeste 0 -- -- 75
2020-03-19 19:00:00 12.8 3 Noroeste 8 Norte 0 -- -- 74
2020-03-19 18:00:00 13.9 6 Noroeste 12 Oeste 0 -- -- 66
2020-03-19 17:00:00 14.4 7 Oeste 10 Sudoeste 0 -- -- 61
2020-03-19 16:00:00 13.6 4 Oeste 8 Oeste 0 -- -- 65
2020-03-19 15:00:00 13.8 2 Oeste 7 Norte 0 -- -- 68
2020-03-19 14:00:00 13.2 3 Norte 6 Noroeste 0 -- -- 70
2020-03-19 13:00:00 12.8 0 Calma 8 Este 0 -- -- 70
2020-03-19 12:00:00 11.7 5 Sudeste 9 Sudeste 0 -- -- 77
2020-03-19 11:00:00 10.7 4 Este 12 Este 0 -- -- 80
2020-03-19 10:00:00 8.8 8 Este 11 Este 0 -- -- 86
2020-03-19 09:00:00 9.4 3 Sudeste 15 Sudeste 0 -- -- 82
2020-03-19 08:00:00 8.2 6 Sur 10 Sudoeste 0 -- -- 85
2020-03-19 07:00:00 8.3 7 Sudoeste 10 Sudoeste 0 -- -- 87
2020-03-19 06:00:00 9.2 3 Oeste 11 Sudoeste 0 -- -- 83
2020-03-19 05:00:00 8.4 0 Calma 6 Sur 0 -- -- 85
2020-03-19 04:00:00 9.3 5 Sudeste 15 Sur 0 -- -- 84
2020-03-19 03:00:00 9.4 8 Sudeste 12 Sudeste 0 -- -- 84
2020-03-19 02:00:00 8.7 11 Sudeste 14 Sudeste 0 -- -- 88
2020-03-19 01:00:00 8.9 8 Sudeste 14 Sudeste 0 -- -- 88
2020-03-19 00:00:00 8.8 15 Sudeste 18 Sudeste 0 -- -- 88
2020-03-18 23:00:00 11 4 Sur 8 Sudoeste 0 -- -- 77
2020-03-18 22:00:00 12 9 Sudoeste 14 Sudoeste 0 -- -- 72
2020-03-18 21:00:00 13.3 12 Sudoeste 15 Sur 0 -- -- 69
2020-03-18 20:00:00 13.9 0 Calma 4 Sur 0 -- -- 73
2020-03-18 19:00:00 15.6 0 Calma 7 Noroeste 0 -- -- 68
2020-03-18 18:00:00 16.8 0 Calma 9 Norte 0 -- -- 64
2020-03-18 17:00:00 17.1 6 Norte 11 Norte 0 -- -- 61
2020-03-18 16:00:00 17.2 6 Nordeste 14 Norte 0 -- -- 57
2020-03-18 15:00:00 16.7 5 Norte 11 Noroeste 0 -- -- 61
2020-03-18 14:00:00 15.4 4 Noroeste 9 Oeste 0 -- -- 65
2020-03-18 13:00:00 13.5 3 Norte 9 Noroeste 0 -- -- 75
2020-03-18 12:00:00 11.3 3 Noroeste 6 Noroeste 0 -- -- 83
2020-03-18 11:00:00 10.1 0 Calma 7 Noroeste 0 -- -- 90
2020-03-18 10:00:00 7.9 5 Sudeste 14 Este 0 -- -- 94
2020-03-18 09:00:00 6.5 9 Este 13 Este 0 -- -- 95
2020-03-18 08:00:00 5.8 5 Este 17 Este 0 -- -- 94
2020-03-18 07:00:00 6.3 5 Este 15 Este 0 -- -- 93
2020-03-18 06:00:00 7 6 Este 15 Este 0 -- -- 92
2020-03-18 05:00:00 7 14 Este 18 Nordeste 0 -- -- 92
2020-03-18 04:00:00 7.1 5 Sudeste 17 Este 0 -- -- 91
2020-03-18 03:00:00 7.1 5 Este 19 Este 0 -- -- 90
2020-03-18 02:00:00 7.1 6 Este 13 Nordeste 0 -- -- 89
2020-03-18 01:00:00 7.4 5 Este 14 Sudeste 0 -- -- 91
2020-03-18 00:00:00 7.5 5 Sudeste 24 Este 0 -- -- 89
2020-03-17 23:00:00 8.1 16 Nordeste 22 Este 0 -- -- 91
2020-03-17 22:00:00 9 14 Este 19 Este 0 -- -- 88
2020-03-17 21:00:00 9.4 8 Nordeste 17 Este 0 -- -- 80
2020-03-17 20:00:00 10.8 15 Este 33 Este 0 -- -- 76
2020-03-17 19:00:00 13.1 18 Este 36 Este 0 -- -- 69
2020-03-17 18:00:00 14.7 28 Este 37 Este 0 -- -- 61
2020-03-17 17:00:00 14.9 31 Este 40 Este 0 -- -- 62
2020-03-17 16:00:00 14.4 17 Este 36 Este 0 -- -- 66
2020-03-17 15:00:00 13.9 22 Este 53 Este 0 -- -- 66
2020-03-17 14:00:00 13.7 33 Este 49 Este 0 -- -- 64
2020-03-17 13:00:00 13.3 28 Nordeste 38 Este 0 -- -- 74
2020-03-17 12:00:00 11.1 18 Nordeste 26 Nordeste 0 -- -- 84
2020-03-17 11:00:00 9.1 8 Norte 20 Nordeste 0 -- -- 88
2020-03-17 10:00:00 8.2 18 Nordeste 30 Nordeste 0 -- -- 92
2020-03-17 09:00:00 6.8 17 Nordeste 27 Nordeste 0 -- -- 97
2020-03-17 08:00:00 4.9 2 Noroeste 8 Sudoeste 0 -- -- 97
2020-03-17 07:00:00 4.6 4 Noroeste 6 Noroeste 0 -- -- 97
2020-03-17 06:00:00 4.6 4 Nordeste 12 Norte 0.2 -- -- 97
2020-03-17 05:00:00 4.4 6 Norte 15 Nordeste 0 -- -- 96
2020-03-17 04:00:00 4.5 12 Nordeste 14 Nordeste 0.4 -- -- 96
2020-03-17 03:00:00 4.3 2 Nordeste 7 Noroeste 0.4 -- -- 97
2020-03-17 02:00:00 4.3 0 Calma 4 Oeste 1.2 -- -- 97
2020-03-17 01:00:00 4.2 0 Calma 12 Nordeste 1.4 -- -- 96
2020-03-17 00:00:00 4.1 10 Nordeste 28 Nordeste 1.8 -- -- 95
2020-03-16 23:00:00 4.1 20 Nordeste 31 Nordeste 0 -- -- 94
2020-03-16 22:00:00 3.9 21 Nordeste 33 Nordeste 0.2 -- -- 94
2020-03-16 21:00:00 3.9 15 Nordeste 24 Nordeste 0.4 -- -- 95
2020-03-16 20:00:00 3.8 20 Nordeste 34 Nordeste 0.8 -- -- 94
2020-03-16 19:00:00 4 17 Nordeste 50 Nordeste 0.8 -- -- 93
2020-03-16 18:00:00 4.2 21 Nordeste 37 Nordeste 1 -- -- 94
2020-03-16 17:00:00 3.8 22 Nordeste 48 Nordeste 1 -- -- 94
2020-03-16 16:00:00 3.7 30 Nordeste 51 Nordeste 1.6 -- -- 93
2020-03-16 15:00:00 4.2 27 Nordeste 52 Nordeste 0.8 -- -- 94
2020-03-16 14:00:00 3.6 32 Nordeste 55 Nordeste 1.4 -- -- 96
2020-03-16 13:00:00 3.1 24 Norte 40 Norte 0.4 -- -- 98
2020-03-16 12:00:00 1.5 17 Norte 29 Norte 1 -- -- 99
2020-03-16 11:00:00 0.5 20 Norte 36 Norte 1.2 -- -- 97
2020-03-16 10:00:00 0.8 18 Norte 26 Norte 1.2 -- -- 98
2020-03-16 09:00:00 1.2 13 Norte 20 Norte 1.6 -- -- 97
2020-03-16 08:00:00 1.9 4 Noroeste 14 Oeste 0 -- -- 98
2020-03-16 07:00:00 1.8 9 Oeste 14 Oeste 0.2 -- -- 97
2020-03-16 06:00:00 1.6 11 Oeste 18 Sudoeste 0.2 -- -- 97
2020-03-16 05:00:00 1.2 16 Oeste 21 Oeste 0 -- -- 96
2020-03-16 04:00:00 1.2 12 Oeste 23 Oeste 0 -- -- 95
2020-03-16 03:00:00 1.7 15 Oeste 26 Oeste 0 -- -- 93
2020-03-16 02:00:00 2.4 19 Oeste 27 Oeste 0 -- -- 89
2020-03-16 01:00:00 3 20 Oeste 37 Oeste 0 -- -- 85
2020-03-16 00:00:00 4.1 28 Oeste 41 Oeste 0 -- -- 78
2020-03-15 23:00:00 7.3 25 Oeste 44 Oeste 0 -- -- 75
2020-03-15 22:00:00 10 19 Sudoeste 27 Oeste 0 -- -- 62
2020-03-15 21:00:00 10.2 17 Oeste 29 Oeste 0 -- -- 65
2020-03-15 20:00:00 10.9 16 Oeste 41 Oeste 0 -- -- 70
2020-03-15 19:00:00 13.4 36 Oeste 48 Oeste 0 -- -- 65
2020-03-15 18:00:00 15.2 33 Oeste 67 Sudoeste 0 -- -- 56
2020-03-15 17:00:00 18 51 Oeste 71 Sudoeste 0 -- -- 37
2020-03-15 16:00:00 19.2 35 Oeste 46 Sudoeste 0 -- -- 44
2020-03-15 15:00:00 18.6 22 Sudoeste 43 Sudoeste 0 -- -- 45
2020-03-15 14:00:00 18.4 16 Oeste 26 Oeste 0 -- -- 45
2020-03-15 13:00:00 18.3 15 Sudoeste 31 Oeste 0 -- -- 42
2020-03-15 12:00:00 18 21 Sudoeste 33 Sudoeste 0 -- -- 44
2020-03-15 11:00:00 16.8 23 Sudoeste 31 Oeste 0 -- -- 46
2020-03-15 10:00:00 13.3 11 Sudoeste 22 Sur 0 -- -- 61
2020-03-15 09:00:00 9.4 12 Sudoeste 15 Sudoeste 0 -- -- 68
2020-03-15 08:00:00 5.7 2 Oeste 8 Este 0 -- -- 76
2020-03-15 07:00:00 3.6 3 Este 27 Sudeste 0 -- -- 75
2020-03-15 06:00:00 3.7 14 Sudeste 22 Sudeste 0 -- -- 74
2020-03-15 05:00:00 2.6 14 Sudeste 20 Sudeste 0 -- -- 77
2020-03-15 04:00:00 3.7 13 Sudeste 21 Sudeste 0 -- -- 72
2020-03-15 03:00:00 3.7 15 Sudeste 19 Sudeste 0 -- -- 73
2020-03-15 02:00:00 3 8 Sudeste 14 Sudeste 0 -- -- 73
2020-03-15 01:00:00 4.2 9 Sudeste 13 Sudeste 0 -- -- 68
2020-03-15 00:00:00 5.6 10 Sudeste 16 Sudeste 0 -- -- 61
2020-03-14 23:00:00 7.7 13 Sudeste 17 Sudeste 0 -- -- 52
2020-03-14 22:00:00 7.6 6 Sudeste 13 Este 0 -- -- 52
2020-03-14 21:00:00 11.9 3 Norte 6 Nordeste 0 -- -- 36
2020-03-14 20:00:00 13.5 3 Nordeste 9 Norte 0 -- -- 34
2020-03-14 19:00:00 16.3 9 Norte 16 Norte 0 -- -- 31
2020-03-14 18:00:00 18.2 9 Norte 17 Norte 0 -- -- 28
2020-03-14 17:00:00 18.8 7 Norte 15 Norte 0 -- -- 30
2020-03-14 16:00:00 18.3 5 Nordeste 17 Norte 0 -- -- 31
2020-03-14 15:00:00 17.3 5 Noroeste 16 Nordeste 0 -- -- 37
2020-03-14 14:00:00 15.9 5 Norte 15 Nordeste 0 -- -- 39
2020-03-14 13:00:00 13.2 5 Norte 12 Norte 0 -- -- 59
2020-03-14 12:00:00 10 3 Norte 9 Norte 0 -- -- 68
2020-03-14 11:00:00 8.4 2 Este 12 Este 0 -- -- 82
2020-03-14 10:00:00 6 6 Este 12 Sudeste 0 -- -- 98
2020-03-14 09:00:00 1.7 9 Sudeste 12 Sudeste 0 -- -- 98
2020-03-14 08:00:00 -0.2 8 Sudeste 10 Sudeste 0 -- -- 96
2020-03-14 07:00:00 -0.4 9 Sudeste 13 Sudeste 0 -- -- 95
2020-03-14 06:00:00 1 0 Calma 3 Oeste 0 -- -- 94
2020-03-14 05:00:00 2.5 2 Oeste 5 Sudeste 0 -- -- 95
2020-03-14 04:00:00 3.5 4 Sudoeste 7 Sudoeste 0 -- -- 93
2020-03-14 03:00:00 3.2 3 Sudoeste 4 Sur 0 -- -- 91
2020-03-14 02:00:00 3.3 3 Sudeste 12 Noroeste 0 -- -- 92
2020-03-14 01:00:00 4.4 8 Sudeste 10 Sudeste 0 -- -- 90
2020-03-14 00:00:00 5.1 5 Nordeste 10 Norte 0 -- -- 88
2020-03-13 23:00:00 6.7 6 Norte 8 Norte 0 -- -- 85
2020-03-13 22:00:00 7.9 3 Nordeste 12 Norte 0 -- -- 82
2020-03-13 21:00:00 8.5 9 Este 17 Norte 0 -- -- 80
2020-03-13 20:00:00 10.6 14 Norte 27 Norte 0 -- -- 74
2020-03-13 19:00:00 13.5 19 Norte 30 Norte 0 -- -- 66
2020-03-13 18:00:00 16.2 15 Norte 19 Norte 0 -- -- 61
2020-03-13 17:00:00 17.3 6 Norte 18 Norte 0 -- -- 58
2020-03-13 16:00:00 17 4 Sudoeste 14 Sur 0 -- -- 60
2020-03-13 15:00:00 15.4 7 Sur 20 Sur 0 -- -- 67
2020-03-13 14:00:00 13 8 Sudeste 15 Este 0 -- -- 73
2020-03-13 13:00:00 11.7 4 Sudeste 10 Este 0 -- -- 80
2020-03-13 12:00:00 9.6 3 Norte 13 Nordeste 0 -- -- 85
2020-03-13 11:00:00 8.6 6 Norte 12 Norte 0 -- -- 88
2020-03-13 10:00:00 7.4 3 Norte 8 Norte 0 -- -- 93
2020-03-13 09:00:00 6.2 2 Noroeste 7 Noroeste 0 -- -- 96
2020-03-13 08:00:00 5.6 2 Noroeste 5 Norte 0 -- -- 95
2020-03-13 07:00:00 5.4 2 Noroeste 7 Noroeste 0 -- -- 95
2020-03-13 06:00:00 5.8 4 Noroeste 9 Noroeste 0 -- -- 93
2020-03-13 05:00:00 7.5 0 Calma 5 Norte 0 -- -- 89
2020-03-13 04:00:00 7.8 4 Norte 6 Norte 0 -- -- 88
2020-03-13 03:00:00 8.4 2 Nordeste 9 Norte 0 -- -- 86
2020-03-13 02:00:00 8.8 5 Norte 17 Norte 0 -- -- 85
2020-03-13 01:00:00 9.6 10 Nordeste 17 Norte 0 -- -- 85
2020-03-13 00:00:00 10.3 9 Nordeste 21 Nordeste 0 -- -- 82
2020-03-12 23:00:00 11.6 9 Norte 14 Norte 0 -- -- 79
2020-03-12 22:00:00 12.7 8 Nordeste 13 Nordeste 0 -- -- 75
2020-03-12 21:00:00 15.4 7 Nordeste 14 Norte 0 -- -- 62
2020-03-12 20:00:00 17.6 4 Noroeste 14 Noroeste 0 -- -- 54
2020-03-12 19:00:00 18.8 12 Noroeste 26 Noroeste 0 -- -- 51
2020-03-12 18:00:00 21 15 Noroeste 21 Norte 0 -- -- 44
2020-03-12 17:00:00 22.1 11 Noroeste 25 Noroeste 0 -- -- 38
2020-03-12 16:00:00 22.9 22 Noroeste 32 Noroeste 0 -- -- 35
2020-03-12 15:00:00 24 6 Norte 21 Oeste 0 -- -- 31
2020-03-12 14:00:00 24.2 10 Sur 32 Sudoeste 0 -- -- 29
2020-03-12 13:00:00 23.5 14 Sudoeste 24 Sudoeste 0 -- -- 31
2020-03-12 12:00:00 22.2 18 Sudoeste 28 Sudoeste 0 -- -- 40
2020-03-12 11:00:00 18.5 4 Sudoeste 10 Noroeste 0 -- -- 55
2020-03-12 10:00:00 16.1 3 Norte 28 Sur 0 -- -- 61
2020-03-12 09:00:00 16.8 22 Sur 28 Sudeste 0 -- -- 52
2020-03-12 08:00:00 12.5 19 Sudeste 23 Sudeste 0 -- -- 62
2020-03-12 07:00:00 11.1 2 Este 7 Sudeste 0 -- -- 63
2020-03-12 06:00:00 10 6 Sudeste 20 Sudoeste 0 -- -- 70
2020-03-12 05:00:00 10.7 3 Sudoeste 20 Sudeste 0 -- -- 68
2020-03-12 04:00:00 10.4 14 Sudeste 21 Sudeste 0 -- -- 71
2020-03-12 03:00:00 11.5 17 Sudeste 27 Sudeste 0 -- -- 69
2020-03-12 02:00:00 11.2 17 Sudeste 22 Sudeste 0 -- -- 72
2020-03-12 01:00:00 12 8 Sudeste 21 Sudeste 0 -- -- 71
2020-03-12 00:00:00 12.8 17 Sudeste 22 Sudeste 0 -- -- 69
2020-03-11 23:00:00 13 15 Sudeste 19 Sudeste 0 -- -- 67
2020-03-11 22:00:00 14.9 14 Sudeste 20 Sudeste 0 -- -- 59
2020-03-11 21:00:00 15.1 7 Sudeste 14 Sudeste 0 -- -- 60
2020-03-11 20:00:00 17.3 6 Este 10 Sudeste 0 -- -- 54
2020-03-11 19:00:00 20.3 3 Nordeste 8 Norte 0 -- -- 45
2020-03-11 18:00:00 21.4 8 Noroeste 19 Noroeste 0 -- -- 42
2020-03-11 17:00:00 22.7 14 Oeste 26 Oeste 0 -- -- 35
2020-03-11 16:00:00 23.4 14 Oeste 20 Oeste 0 -- -- 32
2020-03-11 15:00:00 23.2 10 Oeste 19 Oeste 0 -- -- 34
2020-03-11 14:00:00 22.3 13 Noroeste 19 Noroeste 0 -- -- 37
2020-03-11 13:00:00 21.7 4 Este 11 Oeste 0 -- -- 44
2020-03-11 12:00:00 19.5 3 Oeste 12 Oeste 0 -- -- 48
2020-03-11 11:00:00 18.2 3 Este 7 Este 0 -- -- 59
2020-03-11 10:00:00 14.6 5 Sudeste 12 Sudeste 0 -- -- 68
2020-03-11 09:00:00 9.9 8 Sudeste 13 Sudeste 0 -- -- 84
2020-03-11 08:00:00 7.1 11 Sudeste 17 Sudeste 0 -- -- 87
2020-03-11 07:00:00 6.7 12 Sudeste 18 Este 0 -- -- 87
2020-03-11 06:00:00 7.7 13 Sudeste 18 Sudeste 0 -- -- 84
2020-03-11 05:00:00 7.8 15 Sudeste 18 Sudeste 0 -- -- 84
2020-03-11 04:00:00 9.7 11 Sudeste 17 Sur 0 -- -- 76
2020-03-11 03:00:00 10.3 11 Sudeste 19 Sur 0 -- -- 73
2020-03-11 02:00:00 12.9 14 Sur 24 Sur 0 -- -- 63
2020-03-11 01:00:00 13.6 20 Sur 24 Sur 0 -- -- 66
2020-03-11 00:00:00 13.1 14 Sur 18 Sudoeste 0 -- -- 63
2020-03-10 23:00:00 12.5 6 Sudeste 11 Sudeste 0 -- -- 65
2020-03-10 22:00:00 14.7 8 Oeste 12 Oeste 0 -- -- 62
2020-03-10 21:00:00 15.9 7 Oeste 13 Oeste 0 -- -- 56
2020-03-10 20:00:00 17 6 Oeste 12 Oeste 0 -- -- 48
2020-03-10 19:00:00 19.5 11 Oeste 19 Sudoeste 0 -- -- 43
2020-03-10 18:00:00 21 13 Oeste 27 Oeste 0 -- -- 38
2020-03-10 17:00:00 21.1 15 Oeste 27 Oeste 0 -- -- 37
2020-03-10 16:00:00 20.7 13 Oeste 24 Oeste 0 -- -- 41
2020-03-10 15:00:00 20.2 8 Sur 20 Sudoeste 0 -- -- 39
2020-03-10 14:00:00 18.8 11 Sudoeste 21 Sur 0 -- -- 41
2020-03-10 13:00:00 17.5 12 Sudoeste 21 Sudoeste 0 -- -- 43
2020-03-10 12:00:00 15.9 10 Sur 17 Sur 0 -- -- 45
2020-03-10 11:00:00 13.6 7 Sudeste 13 Sudeste 0 -- -- 53
2020-03-10 10:00:00 9.6 9 Sudeste 16 Sudeste 0 -- -- 69
2020-03-10 09:00:00 6.9 12 Sudeste 17 Sur 0 -- -- 74
2020-03-10 08:00:00 7.8 13 Sur 17 Sur 0 -- -- 65
2020-03-10 07:00:00 5.3 11 Sudeste 14 Sur 0 -- -- 76
2020-03-10 06:00:00 4.1 10 Sudeste 12 Sudeste 0 -- -- 77
2020-03-10 05:00:00 4.2 13 Sudeste 19 Sudeste 0 -- -- 76
2020-03-10 04:00:00 3.8 15 Sudeste 24 Sur 0 -- -- 75
2020-03-10 03:00:00 8 18 Sur 25 Sur 0 -- -- 62
2020-03-10 02:00:00 8.2 18 Sur 25 Sur 0 -- -- 58
2020-03-10 01:00:00 7.7 18 Sur 23 Sur 0 -- -- 59
2020-03-10 00:00:00 5.2 8 Sudeste 14 Sudeste 0 -- -- 70
2020-03-09 23:00:00 7.8 9 Sudoeste 13 Sudoeste 0 -- -- 59
2020-03-09 22:00:00 7.2 4 Sudoeste 6 Oeste 0 -- -- 62
2020-03-09 21:00:00 9.1 6 Oeste 12 Oeste 0 -- -- 54
2020-03-09 20:00:00 9.3 9 Oeste 12 Oeste 0 -- -- 55
2020-03-09 19:00:00 11.2 11 Oeste 22 Oeste 0 -- -- 51
2020-03-09 18:00:00 13 15 Noroeste 29 Oeste 0 -- -- 43
2020-03-09 17:00:00 13.3 16 Noroeste 33 Oeste 0 -- -- 43
2020-03-09 16:00:00 13 18 Oeste 33 Oeste 0 -- -- 46
2020-03-09 15:00:00 12.1 20 Noroeste 30 Noroeste 0 -- -- 48
2020-03-09 14:00:00 11.1 14 Noroeste 24 Oeste 0 -- -- 54
2020-03-09 13:00:00 9.9 13 Oeste 26 Oeste 0 -- -- 60
2020-03-09 12:00:00 8.2 12 Oeste 20 Oeste 0 -- -- 69
2020-03-09 11:00:00 6.8 9 Oeste 19 Oeste 0 -- -- 82
2020-03-09 10:00:00 4.9 13 Sudoeste 20 Sudoeste 0 -- -- 94
2020-03-09 09:00:00 3.7 8 Sudoeste 13 Sudoeste 0 -- -- 95
2020-03-09 08:00:00 2.7 8 Sudoeste 15 Sudoeste 0 -- -- 95
2020-03-09 07:00:00 3 10 Sudoeste 17 Sudoeste 0 -- -- 95
2020-03-09 06:00:00 3.5 12 Sudoeste 15 Sudoeste 0 -- -- 96
2020-03-09 05:00:00 4 15 Sudoeste 22 Oeste 0 -- -- 96
2020-03-09 04:00:00 4.5 12 Sudoeste 20 Sudoeste 0 -- -- 96
2020-03-09 03:00:00 5.1 15 Sudoeste 21 Oeste 0 -- -- 95
2020-03-09 02:00:00 5.8 17 Oeste 33 Sudoeste 0 -- -- 94
2020-03-09 01:00:00 7.4 26 Oeste 39 Sudoeste 0 -- -- 93
2020-03-09 00:00:00 7 17 Oeste 27 Sudoeste 0 -- -- 94